Terminal Aerodrome Forecast
Issued by NWS Tulsa, OK

Home | Current Version | Previous Version | Text Only | Print | Product List | Glossary On
Versions: 1 2 3 4 5 6 7 8 9 10 11 12
000
FTUS44 KTSA 020500
TAFFSM
TAF
KFSM 020520Z 0206/0306 07003KT P6SM SCT250
     FM021500 15009KT P6SM BKN250
     FM022100 20010KT P6SM BKN250 PROB30 0221/0224 3SM -TSRA
      BKN050CB
     FM030000 20010KT P6SM BKN250
      TEMPO 0300/0304 1SM +TSRA BKN030CB
     FM030400 27009KT P6SM VCSH BKN100=

USA.gov is the U.S. government's official web portal to all federal, state and local government web resources and services.